Aérodrome :
LOGIN :

S'inscrire | Disclaimer

   EN    FR    IT 

 










Légende :    VFR   VFR Marginal   IFR   IFR Intensif   IFR Très Intensif
Visi : 
Plafond : 
>= 8 km
>= 3000ft
5 à 8 km
1000 à 3000 ft
1500m à 5 km
500 à 1000 ft
800 à 1500m
200 à 500 ft
< 800m
< 200 ft
Symboles :   Orages  Brouillard  Fortes neiges  Fortes précipitations  Vent > 20 kt
SIGMETs :   Divers  Orages  Givrage  Turbulence  Onde Orograph.  Cendres Volcan.






- Altitude de l'aérodrome : 102 ft
- Code IATA : KEL


EDHK - Holtenau

DERNIER METAR :
  • 311220Z 18004KT 160V230 5000 -DZ BR OVC002 14/13 Q1018

METARs EXPIRÉS :
  • 311150Z 17005KT 2300 -DZ BR OVC002 13/13 Q1018
  • 311120Z 16005KT 2200 -DZ BR BKN007 13/12 Q1019
  • 311050Z 17005KT 9999 SCT009 OVC031 13/12 Q1019
  • 311020Z 14003KT 100V180 9999 BKN009 13/12 Q1019
  • 310950Z VRB02KT 9999 FEW006 SCT008 13/11 Q1019

TAF TAF EDHK
Valide du 31 à 12h jusqu'au 31 à 19h UTC


311100Z 3112/3119 18005KT 9999 BKN009
PROB30
TEMPO 3116/3118 SCT014 BKN020



MET'MAP, la Météo Aéronautique d'un coup d'oeil ! - Copyright ORBIFLY Décembre 2007 - Disclaimer

ORBIFLY MET'MAP TEAM :

Programmation & Développement : Alexandra Zaïnal
Sur une idée originale de : Baudouin d'Aumeries
Assistance à la programmation : Marc-Olivier Méhu
Soutien technique & logistique : Manuel Goepfert

Contact : metmap@orbifly.com




SOURCES & CREDITS :

   NOAA